sensor_id;sensor_type;location;lat;lon;timestamp;P1;durP1;ratioP1;P2;durP2;ratioP2
37091;SDS011;23005;51.998;4.502;2022-12-18T00:00:24;166.65;;;53.55;;
37091;SDS011;23005;51.998;4.502;2022-12-18T00:01:45;159.75;;;53.25;;
37091;SDS011;23005;51.998;4.502;2022-12-18T00:03:07;173.63;;;53.58;;
37091;SDS011;23005;51.998;4.502;2022-12-18T00:04:28;160.90;;;52.00;;
37091;SDS011;23005;51.998;4.502;2022-12-18T00:05:49;144.98;;;51.25;;
37091;SDS011;23005;51.998;4.502;2022-12-18T00:07:11;161.90;;;54.58;;
37091;SDS011;23005;51.998;4.502;2022-12-18T00:08:32;173.52;;;55.67;;
37091;SDS011;23005;51.998;4.502;2022-12-18T00:09:53;165.57;;;53.65;;
37091;SDS011;23005;51.998;4.502;2022-12-18T00:11:14;170.80;;;53.88;;
37091;SDS011;23005;51.998;4.502;2022-12-18T00:12:35;174.63;;;56.10;;
37091;SDS011;23005;51.998;4.502;2022-12-18T00:13:57;160.25;;;54.13;;
37091;SDS011;23005;51.998;4.502;2022-12-18T00:15:18;177.05;;;56.05;;
37091;SDS011;23005;51.998;4.502;2022-12-18T00:16:39;184.95;;;58.88;;
37091;SDS011;23005;51.998;4.502;2022-12-18T00:18:00;158.60;;;54.08;;
37091;SDS011;23005;51.998;4.502;2022-12-18T00:19:22;148.60;;;50.75;;
37091;SDS011;23005;51.998;4.502;2022-12-18T00:20:43;182.13;;;56.92;;
37091;SDS011;23005;51.998;4.502;2022-12-18T00:22:03;182.77;;;58.47;;
37091;SDS011;23005;51.998;4.502;2022-12-18T00:23:24;173.93;;;57.10;;
37091;SDS011;23005;51.998;4.502;2022-12-18T00:24:45;165.02;;;54.92;;
37091;SDS011;23005;51.998;4.502;2022-12-18T00:26:06;175.70;;;55.60;;
37091;SDS011;23005;51.998;4.502;2022-12-18T00:27:29;179.52;;;56.88;;
37091;SDS011;23005;51.998;4.502;2022-12-18T00:28:50;169.60;;;54.05;;
37091;SDS011;23005;51.998;4.502;2022-12-18T00:30:11;187.30;;;59.50;;
37091;SDS011;23005;51.998;4.502;2022-12-18T00:31:32;173.88;;;54.38;;
37091;SDS011;23005;51.998;4.502;2022-12-18T00:34:14;171.93;;;54.95;;
37091;SDS011;23005;51.998;4.502;2022-12-18T00:35:36;183.52;;;58.78;;
37091;SDS011;23005;51.998;4.502;2022-12-18T00:36:57;187.60;;;57.45;;
37091;SDS011;23005;51.998;4.502;2022-12-18T00:38:17;182.30;;;58.92;;
37091;SDS011;23005;51.998;4.502;2022-12-18T00:39:38;169.65;;;56.03;;
37091;SDS011;23005;51.998;4.502;2022-12-18T00:40:59;171.23;;;55.70;;
37091;SDS011;23005;51.998;4.502;2022-12-18T00:43:41;165.88;;;52.75;;
37091;SDS011;23005;51.998;4.502;2022-12-18T00:45:02;201.65;;;60.72;;
37091;SDS011;23005;51.998;4.502;2022-12-18T00:46:31;176.00;;;55.75;;
37091;SDS011;23005;51.998;4.502;2022-12-18T00:47:52;178.45;;;57.45;;
37091;SDS011;23005;51.998;4.502;2022-12-18T00:49:13;192.75;;;57.67;;
37091;SDS011;23005;51.998;4.502;2022-12-18T00:50:33;197.63;;;60.10;;
37091;SDS011;23005;51.998;4.502;2022-12-18T00:51:56;198.63;;;59.17;;
37091;SDS011;23005;51.998;4.502;2022-12-18T00:53:17;190.95;;;57.03;;
37091;SDS011;23005;51.998;4.502;2022-12-18T00:54:37;199.05;;;58.72;;
37091;SDS011;23005;51.998;4.502;2022-12-18T00:55:58;205.52;;;60.75;;
37091;SDS011;23005;51.998;4.502;2022-12-18T00:57:18;186.40;;;57.45;;
37091;SDS011;23005;51.998;4.502;2022-12-18T00:58:39;191.80;;;57.80;;
37091;SDS011;23005;51.998;4.502;2022-12-18T00:59:59;190.40;;;58.30;;
37091;SDS011;23005;51.998;4.502;2022-12-18T01:01:21;187.85;;;57.55;;
37091;SDS011;23005;51.998;4.502;2022-12-18T01:02:41;196.82;;;57.00;;
37091;SDS011;23005;51.998;4.502;2022-12-18T01:04:03;183.57;;;55.70;;
37091;SDS011;23005;51.998;4.502;2022-12-18T01:05:24;187.30;;;57.05;;
37091;SDS011;23005;51.998;4.502;2022-12-18T01:06:45;180.10;;;57.42;;
37091;SDS011;23005;51.998;4.502;2022-12-18T01:08:07;198.88;;;59.40;;
37091;SDS011;23005;51.998;4.502;2022-12-18T01:09:27;186.77;;;57.40;;
37091;SDS011;23005;51.998;4.502;2022-12-18T01:10:48;185.82;;;54.65;;
37091;SDS011;23005;51.998;4.502;2022-12-18T01:12:09;208.45;;;60.15;;
37091;SDS011;23005;51.998;4.502;2022-12-18T01:13:29;195.57;;;58.58;;
37091;SDS011;23005;51.998;4.502;2022-12-18T01:14:50;194.10;;;57.40;;
37091;SDS011;23005;51.998;4.502;2022-12-18T01:16:11;171.48;;;55.78;;
37091;SDS011;23005;51.998;4.502;2022-12-18T01:17:32;191.98;;;57.33;;
37091;SDS011;23005;51.998;4.502;2022-12-18T01:18:53;212.85;;;59.03;;
37091;SDS011;23005;51.998;4.502;2022-12-18T01:20:13;194.25;;;58.92;;
37091;SDS011;23005;51.998;4.502;2022-12-18T01:21:34;182.05;;;56.53;;
37091;SDS011;23005;51.998;4.502;2022-12-18T01:22:55;185.15;;;56.30;;
37091;SDS011;23005;51.998;4.502;2022-12-18T01:24:17;209.82;;;60.25;;
37091;SDS011;23005;51.998;4.502;2022-12-18T01:25:38;183.55;;;57.03;;
37091;SDS011;23005;51.998;4.502;2022-12-18T01:26:58;189.70;;;55.97;;
37091;SDS011;23005;51.998;4.502;2022-12-18T01:28:19;184.05;;;55.08;;
37091;SDS011;23005;51.998;4.502;2022-12-18T01:29:40;190.32;;;59.70;;
37091;SDS011;23005;51.998;4.502;2022-12-18T01:31:11;187.88;;;55.72;;
37091;SDS011;23005;51.998;4.502;2022-12-18T01:32:32;178.60;;;54.13;;
37091;SDS011;23005;51.998;4.502;2022-12-18T01:33:53;192.82;;;57.45;;
37091;SDS011;23005;51.998;4.502;2022-12-18T01:35:14;180.55;;;55.42;;
37091;SDS011;23005;51.998;4.502;2022-12-18T01:36:36;175.98;;;54.28;;
37091;SDS011;23005;51.998;4.502;2022-12-18T01:37:58;185.77;;;55.63;;
37091;SDS011;23005;51.998;4.502;2022-12-18T01:39:20;188.63;;;57.03;;
37091;SDS011;23005;51.998;4.502;2022-12-18T01:40:41;180.20;;;54.75;;
37091;SDS011;23005;51.998;4.502;2022-12-18T01:42:02;180.02;;;54.40;;
37091;SDS011;23005;51.998;4.502;2022-12-18T01:43:39;168.93;;;54.30;;
37091;SDS011;23005;51.998;4.502;2022-12-18T01:45:05;173.43;;;54.58;;
37091;SDS011;23005;51.998;4.502;2022-12-18T01:46:28;197.18;;;59.13;;
37091;SDS011;23005;51.998;4.502;2022-12-18T01:47:50;174.88;;;55.58;;
37091;SDS011;23005;51.998;4.502;2022-12-18T01:49:12;192.60;;;56.92;;
37091;SDS011;23005;51.998;4.502;2022-12-18T01:50:33;177.18;;;55.80;;
37091;SDS011;23005;51.998;4.502;2022-12-18T01:51:55;207.35;;;60.75;;
37091;SDS011;23005;51.998;4.502;2022-12-18T01:53:17;199.80;;;59.65;;
37091;SDS011;23005;51.998;4.502;2022-12-18T01:54:40;196.00;;;58.88;;
37091;SDS011;23005;51.998;4.502;2022-12-18T01:56:01;179.68;;;55.70;;
37091;SDS011;23005;51.998;4.502;2022-12-18T01:57:22;192.40;;;57.40;;
37091;SDS011;23005;51.998;4.502;2022-12-18T01:58:46;173.57;;;54.50;;
37091;SDS011;23005;51.998;4.502;2022-12-18T02:00:12;185.57;;;56.63;;
37091;SDS011;23005;51.998;4.502;2022-12-18T02:01:34;202.75;;;60.97;;
37091;SDS011;23005;51.998;4.502;2022-12-18T02:04:18;183.52;;;54.35;;
37091;SDS011;23005;51.998;4.502;2022-12-18T02:05:43;193.02;;;56.67;;
37091;SDS011;23005;51.998;4.502;2022-12-18T02:07:06;176.07;;;55.80;;
37091;SDS011;23005;51.998;4.502;2022-12-18T02:08:32;184.63;;;56.60;;
37091;SDS011;23005;51.998;4.502;2022-12-18T02:09:59;171.70;;;54.63;;
37091;SDS011;23005;51.998;4.502;2022-12-18T02:11:24;174.93;;;54.75;;
37091;SDS011;23005;51.998;4.502;2022-12-18T02:12:52;167.23;;;52.92;;
37091;SDS011;23005;51.998;4.502;2022-12-18T02:14:18;175.48;;;55.83;;
37091;SDS011;23005;51.998;4.502;2022-12-18T02:15:46;170.57;;;55.13;;
37091;SDS011;23005;51.998;4.502;2022-12-18T02:17:11;172.38;;;54.58;;
37091;SDS011;23005;51.998;4.502;2022-12-18T02:18:36;169.63;;;56.35;;
37091;SDS011;23005;51.998;4.502;2022-12-18T02:20:02;198.15;;;60.38;;
37091;SDS011;23005;51.998;4.502;2022-12-18T02:21:30;175.68;;;58.17;;
37091;SDS011;23005;51.998;4.502;2022-12-18T02:22:57;174.73;;;56.92;;
37091;SDS011;23005;51.998;4.502;2022-12-18T02:24:24;180.65;;;54.65;;
37091;SDS011;23005;51.998;4.502;2022-12-18T02:27:39;200.45;;;58.53;;
37091;SDS011;23005;51.998;4.502;2022-12-18T02:29:02;187.05;;;57.00;;
37091;SDS011;23005;51.998;4.502;2022-12-18T02:30:24;179.95;;;57.13;;
37091;SDS011;23005;51.998;4.502;2022-12-18T02:31:47;204.15;;;60.08;;
37091;SDS011;23005;51.998;4.502;2022-12-18T02:33:11;234.00;;;62.17;;
37091;SDS011;23005;51.998;4.502;2022-12-18T02:34:32;185.65;;;56.83;;
37091;SDS011;23005;51.998;4.502;2022-12-18T02:35:57;200.93;;;57.63;;
37091;SDS011;23005;51.998;4.502;2022-12-18T02:37:18;190.05;;;58.20;;
37091;SDS011;23005;51.998;4.502;2022-12-18T02:38:40;204.45;;;59.58;;
37091;SDS011;23005;51.998;4.502;2022-12-18T02:40:02;189.35;;;57.55;;
37091;SDS011;23005;51.998;4.502;2022-12-18T02:41:25;182.13;;;57.38;;
37091;SDS011;23005;51.998;4.502;2022-12-18T02:42:46;179.63;;;56.58;;
37091;SDS011;23005;51.998;4.502;2022-12-18T02:44:08;195.02;;;57.78;;
37091;SDS011;23005;51.998;4.502;2022-12-18T02:45:30;185.98;;;55.75;;
37091;SDS011;23005;51.998;4.502;2022-12-18T02:46:51;166.95;;;55.33;;
37091;SDS011;23005;51.998;4.502;2022-12-18T02:48:13;185.23;;;54.53;;
37091;SDS011;23005;51.998;4.502;2022-12-18T02:49:35;212.98;;;55.72;;
37091;SDS011;23005;51.998;4.502;2022-12-18T02:51:03;181.60;;;54.80;;
37091;SDS011;23005;51.998;4.502;2022-12-18T02:52:31;170.70;;;54.25;;
37091;SDS011;23005;51.998;4.502;2022-12-18T02:53:56;234.27;;;54.65;;
37091;SDS011;23005;51.998;4.502;2022-12-18T02:55:23;192.98;;;56.33;;
37091;SDS011;23005;51.998;4.502;2022-12-18T02:56:51;213.45;;;55.97;;
37091;SDS011;23005;51.998;4.502;2022-12-18T02:58:15;202.45;;;54.47;;
37091;SDS011;23005;51.998;4.502;2022-12-18T02:59:39;171.82;;;54.08;;
37091;SDS011;23005;51.998;4.502;2022-12-18T03:01:03;185.25;;;55.92;;
37091;SDS011;23005;51.998;4.502;2022-12-18T03:02:29;171.85;;;51.97;;
37091;SDS011;23005;51.998;4.502;2022-12-18T03:03:54;168.38;;;53.38;;
37091;SDS011;23005;51.998;4.502;2022-12-18T03:05:16;163.43;;;52.92;;
37091;SDS011;23005;51.998;4.502;2022-12-18T03:06:39;158.27;;;54.40;;
37091;SDS011;23005;51.998;4.502;2022-12-18T03:08:02;176.23;;;50.70;;
37091;SDS011;23005;51.998;4.502;2022-12-18T03:09:27;164.25;;;51.55;;
37091;SDS011;23005;51.998;4.502;2022-12-18T03:10:51;167.15;;;53.97;;
37091;SDS011;23005;51.998;4.502;2022-12-18T03:12:17;156.02;;;51.33;;
37091;SDS011;23005;51.998;4.502;2022-12-18T03:13:41;160.25;;;51.00;;
37091;SDS011;23005;51.998;4.502;2022-12-18T03:15:04;185.93;;;52.38;;
37091;SDS011;23005;51.998;4.502;2022-12-18T03:16:36;230.70;;;56.95;;
37091;SDS011;23005;51.998;4.502;2022-12-18T03:17:57;137.68;;;48.20;;
37091;SDS011;23005;51.998;4.502;2022-12-18T03:19:21;149.45;;;49.28;;
37091;SDS011;23005;51.998;4.502;2022-12-18T03:20:43;205.95;;;50.95;;
37091;SDS011;23005;51.998;4.502;2022-12-18T03:22:04;172.38;;;53.25;;
37091;SDS011;23005;51.998;4.502;2022-12-18T03:23:29;188.75;;;54.55;;
37091;SDS011;23005;51.998;4.502;2022-12-18T03:24:52;225.65;;;53.35;;
37091;SDS011;23005;51.998;4.502;2022-12-18T03:26:14;231.20;;;58.55;;
37091;SDS011;23005;51.998;4.502;2022-12-18T03:27:38;157.20;;;48.35;;
37091;SDS011;23005;51.998;4.502;2022-12-18T03:29:03;165.25;;;49.50;;
37091;SDS011;23005;51.998;4.502;2022-12-18T03:30:27;175.60;;;52.50;;
37091;SDS011;23005;51.998;4.502;2022-12-18T03:31:49;188.07;;;53.90;;
37091;SDS011;23005;51.998;4.502;2022-12-18T03:33:14;182.57;;;52.13;;
37091;SDS011;23005;51.998;4.502;2022-12-18T03:34:37;188.88;;;52.65;;
37091;SDS011;23005;51.998;4.502;2022-12-18T03:35:59;190.95;;;55.85;;
37091;SDS011;23005;51.998;4.502;2022-12-18T03:37:20;200.15;;;56.35;;
37091;SDS011;23005;51.998;4.502;2022-12-18T03:38:41;170.55;;;53.28;;
37091;SDS011;23005;51.998;4.502;2022-12-18T03:40:02;176.35;;;56.00;;
37091;SDS011;23005;51.998;4.502;2022-12-18T03:41:25;173.00;;;52.05;;
37091;SDS011;23005;51.998;4.502;2022-12-18T03:42:51;163.73;;;53.92;;
37091;SDS011;23005;51.998;4.502;2022-12-18T03:44:17;154.95;;;50.38;;
37091;SDS011;23005;51.998;4.502;2022-12-18T03:45:42;163.65;;;50.90;;
37091;SDS011;23005;51.998;4.502;2022-12-18T03:47:06;212.85;;;55.65;;
37091;SDS011;23005;51.998;4.502;2022-12-18T03:48:29;152.30;;;49.70;;
37091;SDS011;23005;51.998;4.502;2022-12-18T03:49:53;177.77;;;55.55;;
37091;SDS011;23005;51.998;4.502;2022-12-18T03:51:17;184.02;;;53.67;;
37091;SDS011;23005;51.998;4.502;2022-12-18T03:52:43;177.18;;;53.28;;
37091;SDS011;23005;51.998;4.502;2022-12-18T03:54:06;184.32;;;52.33;;
37091;SDS011;23005;51.998;4.502;2022-12-18T03:55:29;191.68;;;55.95;;
37091;SDS011;23005;51.998;4.502;2022-12-18T03:56:53;181.20;;;52.92;;
37091;SDS011;23005;51.998;4.502;2022-12-18T03:58:19;176.23;;;52.33;;
37091;SDS011;23005;51.998;4.502;2022-12-18T03:59:40;202.50;;;57.65;;
37091;SDS011;23005;51.998;4.502;2022-12-18T04:01:03;162.52;;;52.95;;
37091;SDS011;23005;51.998;4.502;2022-12-18T04:02:25;168.43;;;51.97;;
37091;SDS011;23005;51.998;4.502;2022-12-18T04:03:46;171.70;;;52.20;;
37091;SDS011;23005;51.998;4.502;2022-12-18T04:05:09;174.60;;;54.28;;
37091;SDS011;23005;51.998;4.502;2022-12-18T04:06:31;189.77;;;55.15;;
37091;SDS011;23005;51.998;4.502;2022-12-18T04:07:52;165.05;;;52.47;;
37091;SDS011;23005;51.998;4.502;2022-12-18T04:09:13;155.57;;;50.60;;
37091;SDS011;23005;51.998;4.502;2022-12-18T04:10:34;188.60;;;55.13;;
37091;SDS011;23005;51.998;4.502;2022-12-18T04:11:55;167.25;;;52.60;;
37091;SDS011;23005;51.998;4.502;2022-12-18T04:13:22;164.65;;;52.60;;
37091;SDS011;23005;51.998;4.502;2022-12-18T04:14:43;161.98;;;51.58;;
37091;SDS011;23005;51.998;4.502;2022-12-18T04:16:04;155.52;;;49.17;;
37091;SDS011;23005;51.998;4.502;2022-12-18T04:18:46;169.57;;;51.42;;
37091;SDS011;23005;51.998;4.502;2022-12-18T04:20:07;167.55;;;51.08;;
37091;SDS011;23005;51.998;4.502;2022-12-18T04:22:49;161.25;;;51.28;;
37091;SDS011;23005;51.998;4.502;2022-12-18T04:24:09;165.63;;;52.42;;
37091;SDS011;23005;51.998;4.502;2022-12-18T04:25:30;151.52;;;49.17;;
37091;SDS011;23005;51.998;4.502;2022-12-18T04:26:50;157.70;;;50.58;;
37091;SDS011;23005;51.998;4.502;2022-12-18T04:28:11;147.23;;;49.95;;
37091;SDS011;23005;51.998;4.502;2022-12-18T04:29:33;164.88;;;51.85;;
37091;SDS011;23005;51.998;4.502;2022-12-18T04:30:54;140.88;;;48.45;;
37091;SDS011;23005;51.998;4.502;2022-12-18T04:32:14;163.60;;;50.47;;
37091;SDS011;23005;51.998;4.502;2022-12-18T04:33:35;130.07;;;46.40;;
37091;SDS011;23005;51.998;4.502;2022-12-18T04:34:56;133.48;;;47.13;;
37091;SDS011;23005;51.998;4.502;2022-12-18T04:36:17;142.70;;;48.72;;
37091;SDS011;23005;51.998;4.502;2022-12-18T04:37:37;138.57;;;47.20;;
37091;SDS011;23005;51.998;4.502;2022-12-18T04:38:58;134.43;;;47.53;;
37091;SDS011;23005;51.998;4.502;2022-12-18T04:40:19;136.88;;;47.08;;
37091;SDS011;23005;51.998;4.502;2022-12-18T04:41:40;116.57;;;43.65;;
37091;SDS011;23005;51.998;4.502;2022-12-18T04:43:00;136.05;;;45.92;;
37091;SDS011;23005;51.998;4.502;2022-12-18T04:44:21;128.20;;;46.97;;
37091;SDS011;23005;51.998;4.502;2022-12-18T04:45:43;128.30;;;44.83;;
37091;SDS011;23005;51.998;4.502;2022-12-18T04:47:03;127.13;;;46.35;;
37091;SDS011;23005;51.998;4.502;2022-12-18T04:48:24;124.87;;;44.67;;
37091;SDS011;23005;51.998;4.502;2022-12-18T04:49:44;114.57;;;41.25;;
37091;SDS011;23005;51.998;4.502;2022-12-18T04:51:06;114.95;;;42.92;;
37091;SDS011;23005;51.998;4.502;2022-12-18T04:52:26;116.82;;;43.03;;
37091;SDS011;23005;51.998;4.502;2022-12-18T04:53:47;113.72;;;42.78;;
37091;SDS011;23005;51.998;4.502;2022-12-18T04:55:08;114.47;;;43.80;;
37091;SDS011;23005;51.998;4.502;2022-12-18T04:56:29;115.63;;;43.03;;
37091;SDS011;23005;51.998;4.502;2022-12-18T04:57:50;112.57;;;41.78;;
37091;SDS011;23005;51.998;4.502;2022-12-18T04:59:11;106.00;;;42.33;;
37091;SDS011;23005;51.998;4.502;2022-12-18T05:00:32;112.30;;;43.22;;
37091;SDS011;23005;51.998;4.502;2022-12-18T05:01:54;117.90;;;43.53;;
37091;SDS011;23005;51.998;4.502;2022-12-18T05:03:15;108.20;;;41.65;;
37091;SDS011;23005;51.998;4.502;2022-12-18T05:04:36;108.95;;;41.03;;
37091;SDS011;23005;51.998;4.502;2022-12-18T05:05:56;111.57;;;42.85;;
37091;SDS011;23005;51.998;4.502;2022-12-18T05:07:17;108.70;;;40.75;;
37091;SDS011;23005;51.998;4.502;2022-12-18T05:08:37;119.70;;;43.72;;
37091;SDS011;23005;51.998;4.502;2022-12-18T05:09:58;110.88;;;42.28;;
37091;SDS011;23005;51.998;4.502;2022-12-18T05:11:19;115.03;;;42.22;;
37091;SDS011;23005;51.998;4.502;2022-12-18T05:12:40;114.43;;;44.20;;
37091;SDS011;23005;51.998;4.502;2022-12-18T05:14:00;115.47;;;43.33;;
37091;SDS011;23005;51.998;4.502;2022-12-18T05:15:21;114.57;;;43.22;;
37091;SDS011;23005;51.998;4.502;2022-12-18T05:16:41;117.65;;;42.88;;
37091;SDS011;23005;51.998;4.502;2022-12-18T05:18:04;113.28;;;41.40;;
37091;SDS011;23005;51.998;4.502;2022-12-18T05:19:25;114.50;;;41.80;;
37091;SDS011;23005;51.998;4.502;2022-12-18T05:20:45;113.28;;;42.63;;
37091;SDS011;23005;51.998;4.502;2022-12-18T05:22:06;120.82;;;43.95;;
37091;SDS011;23005;51.998;4.502;2022-12-18T05:23:27;111.47;;;42.95;;
37091;SDS011;23005;51.998;4.502;2022-12-18T05:24:48;113.80;;;43.80;;
37091;SDS011;23005;51.998;4.502;2022-12-18T05:26:09;118.53;;;41.25;;
37091;SDS011;23005;51.998;4.502;2022-12-18T05:27:35;122.90;;;44.58;;
37091;SDS011;23005;51.998;4.502;2022-12-18T05:28:55;114.03;;;42.25;;
37091;SDS011;23005;51.998;4.502;2022-12-18T05:30:16;116.40;;;43.53;;
37091;SDS011;23005;51.998;4.502;2022-12-18T05:31:37;121.55;;;43.67;;
37091;SDS011;23005;51.998;4.502;2022-12-18T05:32:58;119.05;;;43.13;;
37091;SDS011;23005;51.998;4.502;2022-12-18T05:34:21;120.45;;;45.03;;
37091;SDS011;23005;51.998;4.502;2022-12-18T05:35:41;113.85;;;41.80;;
37091;SDS011;23005;51.998;4.502;2022-12-18T05:37:02;104.47;;;40.47;;
37091;SDS011;23005;51.998;4.502;2022-12-18T05:38:23;123.30;;;44.78;;
37091;SDS011;23005;51.998;4.502;2022-12-18T05:39:44;114.78;;;42.88;;
37091;SDS011;23005;51.998;4.502;2022-12-18T05:41:05;107.90;;;41.05;;
37091;SDS011;23005;51.998;4.502;2022-12-18T05:42:26;105.97;;;40.42;;
37091;SDS011;23005;51.998;4.502;2022-12-18T05:43:46;114.50;;;42.72;;
37091;SDS011;23005;51.998;4.502;2022-12-18T05:45:07;121.60;;;43.38;;
37091;SDS011;23005;51.998;4.502;2022-12-18T05:46:28;104.57;;;40.45;;
37091;SDS011;23005;51.998;4.502;2022-12-18T05:47:49;113.28;;;42.60;;
37091;SDS011;23005;51.998;4.502;2022-12-18T05:49:10;106.78;;;40.42;;
37091;SDS011;23005;51.998;4.502;2022-12-18T05:50:34;116.85;;;43.90;;
37091;SDS011;23005;51.998;4.502;2022-12-18T05:51:55;109.43;;;40.50;;
37091;SDS011;23005;51.998;4.502;2022-12-18T05:53:17;114.70;;;43.40;;
37091;SDS011;23005;51.998;4.502;2022-12-18T05:54:39;115.30;;;43.45;;
37091;SDS011;23005;51.998;4.502;2022-12-18T05:56:00;121.97;;;46.38;;
37091;SDS011;23005;51.998;4.502;2022-12-18T05:57:21;108.22;;;41.78;;
37091;SDS011;23005;51.998;4.502;2022-12-18T05:58:41;109.88;;;42.03;;
37091;SDS011;23005;51.998;4.502;2022-12-18T06:00:02;118.60;;;42.80;;
37091;SDS011;23005;51.998;4.502;2022-12-18T06:01:24;100.25;;;40.00;;
37091;SDS011;23005;51.998;4.502;2022-12-18T06:02:46;114.32;;;43.35;;
37091;SDS011;23005;51.998;4.502;2022-12-18T06:04:07;109.35;;;43.00;;
37091;SDS011;23005;51.998;4.502;2022-12-18T06:05:27;110.75;;;43.03;;
37091;SDS011;23005;51.998;4.502;2022-12-18T06:06:49;104.30;;;41.83;;
37091;SDS011;23005;51.998;4.502;2022-12-18T06:08:10;105.72;;;41.63;;
37091;SDS011;23005;51.998;4.502;2022-12-18T06:09:31;110.30;;;43.78;;
37091;SDS011;23005;51.998;4.502;2022-12-18T06:10:51;99.22;;;39.70;;
37091;SDS011;23005;51.998;4.502;2022-12-18T06:12:12;103.55;;;41.92;;
37091;SDS011;23005;51.998;4.502;2022-12-18T06:13:33;120.75;;;43.47;;
37091;SDS011;23005;51.998;4.502;2022-12-18T06:14:54;111.35;;;40.45;;
37091;SDS011;23005;51.998;4.502;2022-12-18T06:16:14;104.95;;;40.53;;
37091;SDS011;23005;51.998;4.502;2022-12-18T06:17:35;107.03;;;41.17;;
37091;SDS011;23005;51.998;4.502;2022-12-18T06:18:56;101.88;;;40.45;;
37091;SDS011;23005;51.998;4.502;2022-12-18T06:20:17;107.97;;;42.55;;
37091;SDS011;23005;51.998;4.502;2022-12-18T06:21:37;100.85;;;39.85;;
37091;SDS011;23005;51.998;4.502;2022-12-18T06:23:00;103.35;;;41.10;;
37091;SDS011;23005;51.998;4.502;2022-12-18T06:24:20;106.50;;;39.60;;
37091;SDS011;23005;51.998;4.502;2022-12-18T06:25:40;104.70;;;40.05;;
37091;SDS011;23005;51.998;4.502;2022-12-18T06:27:01;95.20;;;39.47;;
37091;SDS011;23005;51.998;4.502;2022-12-18T06:28:22;97.45;;;38.47;;
37091;SDS011;23005;51.998;4.502;2022-12-18T06:29:42;94.97;;;37.78;;
37091;SDS011;23005;51.998;4.502;2022-12-18T06:31:05;95.55;;;38.13;;
37091;SDS011;23005;51.998;4.502;2022-12-18T06:32:26;103.80;;;40.17;;
37091;SDS011;23005;51.998;4.502;2022-12-18T06:33:46;90.45;;;38.28;;
37091;SDS011;23005;51.998;4.502;2022-12-18T06:35:07;92.50;;;38.33;;
37091;SDS011;23005;51.998;4.502;2022-12-18T06:36:28;96.90;;;39.00;;
37091;SDS011;23005;51.998;4.502;2022-12-18T06:37:49;100.47;;;39.42;;
37091;SDS011;23005;51.998;4.502;2022-12-18T06:39:13;101.57;;;38.28;;
37091;SDS011;23005;51.998;4.502;2022-12-18T06:40:33;83.85;;;36.10;;
37091;SDS011;23005;51.998;4.502;2022-12-18T06:41:54;95.85;;;37.88;;
37091;SDS011;23005;51.998;4.502;2022-12-18T06:43:15;91.70;;;36.60;;
37091;SDS011;23005;51.998;4.502;2022-12-18T06:44:35;97.22;;;39.20;;
37091;SDS011;23005;51.998;4.502;2022-12-18T06:45:58;84.10;;;35.35;;
37091;SDS011;23005;51.998;4.502;2022-12-18T06:47:19;89.20;;;37.22;;
37091;SDS011;23005;51.998;4.502;2022-12-18T06:48:39;98.38;;;37.25;;
37091;SDS011;23005;51.998;4.502;2022-12-18T06:50:00;85.43;;;35.80;;
37091;SDS011;23005;51.998;4.502;2022-12-18T06:51:21;88.88;;;36.35;;
37091;SDS011;23005;51.998;4.502;2022-12-18T06:52:43;88.70;;;34.75;;
37091;SDS011;23005;51.998;4.502;2022-12-18T06:54:04;83.53;;;34.35;;
37091;SDS011;23005;51.998;4.502;2022-12-18T06:55:26;87.45;;;35.92;;
37091;SDS011;23005;51.998;4.502;2022-12-18T06:56:47;87.05;;;34.80;;
37091;SDS011;23005;51.998;4.502;2022-12-18T06:58:08;84.63;;;35.70;;
37091;SDS011;23005;51.998;4.502;2022-12-18T06:59:30;94.13;;;36.58;;
37091;SDS011;23005;51.998;4.502;2022-12-18T07:00:51;87.03;;;34.42;;
37091;SDS011;23005;51.998;4.502;2022-12-18T07:02:11;89.95;;;35.78;;
37091;SDS011;23005;51.998;4.502;2022-12-18T07:03:32;89.00;;;35.95;;
37091;SDS011;23005;51.998;4.502;2022-12-18T07:04:53;82.32;;;34.42;;
37091;SDS011;23005;51.998;4.502;2022-12-18T07:06:15;87.22;;;34.72;;
37091;SDS011;23005;51.998;4.502;2022-12-18T07:07:37;82.85;;;32.80;;
37091;SDS011;23005;51.998;4.502;2022-12-18T07:08:57;89.22;;;34.97;;
37091;SDS011;23005;51.998;4.502;2022-12-18T07:10:19;84.25;;;33.80;;
37091;SDS011;23005;51.998;4.502;2022-12-18T07:11:41;78.82;;;34.17;;
37091;SDS011;23005;51.998;4.502;2022-12-18T07:13:02;85.00;;;33.50;;
37091;SDS011;23005;51.998;4.502;2022-12-18T07:14:22;82.03;;;33.75;;
37091;SDS011;23005;51.998;4.502;2022-12-18T07:15:43;78.85;;;33.22;;
37091;SDS011;23005;51.998;4.502;2022-12-18T07:17:04;78.82;;;32.83;;
37091;SDS011;23005;51.998;4.502;2022-12-18T07:18:25;84.50;;;33.72;;
37091;SDS011;23005;51.998;4.502;2022-12-18T07:19:46;79.10;;;32.90;;
37091;SDS011;23005;51.998;4.502;2022-12-18T07:21:07;76.63;;;33.17;;
37091;SDS011;23005;51.998;4.502;2022-12-18T07:22:29;74.13;;;32.70;;
37091;SDS011;23005;51.998;4.502;2022-12-18T07:23:49;80.40;;;31.77;;
37091;SDS011;23005;51.998;4.502;2022-12-18T07:25:10;78.13;;;34.00;;
37091;SDS011;23005;51.998;4.502;2022-12-18T07:26:31;79.50;;;32.17;;
37091;SDS011;23005;51.998;4.502;2022-12-18T07:27:53;96.13;;;35.40;;
37091;SDS011;23005;51.998;4.502;2022-12-18T07:29:14;73.22;;;31.70;;
37091;SDS011;23005;51.998;4.502;2022-12-18T07:30:36;77.18;;;33.25;;
37091;SDS011;23005;51.998;4.502;2022-12-18T07:31:57;85.40;;;32.63;;
37091;SDS011;23005;51.998;4.502;2022-12-18T07:33:18;69.63;;;30.92;;
37091;SDS011;23005;51.998;4.502;2022-12-18T07:34:38;68.00;;;31.92;;
37091;SDS011;23005;51.998;4.502;2022-12-18T07:35:59;73.85;;;33.10;;
37091;SDS011;23005;51.998;4.502;2022-12-18T07:37:20;73.22;;;32.08;;
37091;SDS011;23005;51.998;4.502;2022-12-18T07:38:40;70.82;;;32.00;;
37091;SDS011;23005;51.998;4.502;2022-12-18T07:40:01;72.43;;;33.00;;
37091;SDS011;23005;51.998;4.502;2022-12-18T07:41:21;75.28;;;31.70;;
37091;SDS011;23005;51.998;4.502;2022-12-18T07:42:42;74.78;;;32.92;;
37091;SDS011;23005;51.998;4.502;2022-12-18T07:44:04;69.97;;;30.60;;
37091;SDS011;23005;51.998;4.502;2022-12-18T07:45:25;79.38;;;32.28;;
37091;SDS011;23005;51.998;4.502;2022-12-18T07:46:45;70.82;;;30.83;;
37091;SDS011;23005;51.998;4.502;2022-12-18T07:48:06;71.15;;;30.30;;
37091;SDS011;23005;51.998;4.502;2022-12-18T07:49:27;66.38;;;30.02;;
37091;SDS011;23005;51.998;4.502;2022-12-18T07:50:47;70.88;;;30.77;;
37091;SDS011;23005;51.998;4.502;2022-12-18T07:52:08;73.30;;;32.13;;
37091;SDS011;23005;51.998;4.502;2022-12-18T07:53:28;66.15;;;30.30;;
37091;SDS011;23005;51.998;4.502;2022-12-18T07:54:49;77.20;;;30.45;;
37091;SDS011;23005;51.998;4.502;2022-12-18T07:56:11;77.28;;;31.67;;
37091;SDS011;23005;51.998;4.502;2022-12-18T07:57:49;68.85;;;29.98;;
37091;SDS011;23005;51.998;4.502;2022-12-18T07:59:15;71.50;;;31.00;;
37091;SDS011;23005;51.998;4.502;2022-12-18T08:00:36;74.50;;;31.10;;
37091;SDS011;23005;51.998;4.502;2022-12-18T08:01:57;75.20;;;31.85;;